Aérodrome :
LOGIN :

S'inscrire | Disclaimer

   EN    FR    IT 

 










Légende :    VFR   VFR Marginal   IFR   IFR Intensif   IFR Très Intensif
Visi : 
Plafond : 
>= 8 km
>= 3000ft
5 à 8 km
1000 à 3000 ft
1500m à 5 km
500 à 1000 ft
800 à 1500m
200 à 500 ft
< 800m
< 200 ft
Symboles :   Orages  Brouillard  Fortes neiges  Fortes précipitations  Vent > 20 kt
SIGMETs :   Divers  Orages  Givrage  Turbulence  Onde Orograph.  Cendres Volcan.






- Altitude de l'aérodrome : 179 ft


LIPI - Rivolto AFB Udine

DERNIER METAR :
  • 191410Z 36003KT 9999 -TSRA FEW013 FEW015CB SCT030 BKN040 20/16 Q1010 RMK OVC VIS MIN 6000SW WIND THR06 03005KT WIND THR24 01003KT WHT

METARs EXPIRÉS :
  • 191355Z 35003KT 9999 FEW013 SCT030 BKN040 20/17 Q1010 RMK OVC VIS MIN 9999 WIND THR06 03004KT WIND THR24 36003KT BLU
  • 191255Z 07003KT 9999 -RA FEW015 FEW020TCU SCT030 BKN040 22/14 Q1011 RMK OVC VIS MIN 6000SW WIND THR06 /////KT WIND THR24 09004KT WHT
  • 191155Z 06004KT 9999 FEW015 SCT045 BKN060 22/14 Q1011 RMK OVC VIS MIN 9999 WIND THR06 11004KT WIND THR24 09005KT BLU

TAF TAF LIPI
Valide du 19 à 15h jusqu'au 20 à 00h UTC


191400Z 1915/1924 VRB05KT 9999 SCT015CB BKN040
TEMPO 1915/1924 VRB10KT 3000 TSRA SCT010CB BKN025



MET'MAP, la Météo Aéronautique d'un coup d'oeil ! - Copyright ORBIFLY Décembre 2007 - Disclaimer

ORBIFLY MET'MAP TEAM :

Programmation & Développement : Alexandra Zaïnal
Sur une idée originale de : Baudouin d'Aumeries
Assistance à la programmation : Marc-Olivier Méhu
Soutien technique & logistique : Manuel Goepfert

Contact : metmap@orbifly.com




SOURCES & CREDITS :

   NOAA